Time;durP1;ratioP1;P1;durP2;ratioP2;P2;SDS_P1;SDS_P2;PMS_P1;PMS_P2;Temp;Humidity;BMP_temperature;BMP_pressure;BME280_temperature;BME280_humidity;BME280_pressure;Samples;Min_cycle;Max_cycle;Signal;HPM_P1;HPM_P2
2022/03/23 00:01:50;;;;;;;42.10;11.37;;;7.70;7.10;;;;;;5007453;28;20851;-53
2022/03/23 00:04:17;;;;;;;41.73;12.47;;;7.60;7.30;;;;;;5003840;28;20464;-57
2022/03/23 00:06:44;;;;;;;46.70;12.33;;;7.60;7.60;;;;;;5013105;28;20494;-57
2022/03/23 00:09:12;;;;;;;44.60;13.27;;;7.50;7.80;;;;;;5008783;28;20993;-57
2022/03/23 00:11:41;;;;;;;45.77;13.07;;;7.50;8.00;;;;;;5019138;28;20545;-55
2022/03/23 00:14:09;;;;;;;45.67;13.20;;;7.50;8.30;;;;;;5014060;28;20459;-56
2022/03/23 00:16:36;;;;;;;46.87;12.80;;;7.40;8.60;;;;;;5006292;28;20488;-56
2022/03/23 00:19:03;;;;;;;46.70;13.60;;;7.30;8.80;;;;;;5012606;28;20498;-58
2022/03/23 00:21:30;;;;;;;45.50;13.00;;;7.30;8.90;;;;;;5001250;28;20464;-57
2022/03/23 00:23:57;;;;;;;45.27;12.07;;;7.30;9.20;;;;;;5013144;28;20467;-58
2022/03/23 00:26:24;;;;;;;43.33;12.80;;;7.20;9.30;;;;;;5019961;28;20483;-56
2022/03/23 00:28:52;;;;;;;42.33;12.10;;;7.20;9.50;;;;;;5014348;28;20530;-57
2022/03/23 00:31:20;;;;;;;43.90;11.47;;;7.10;9.60;;;;;;4993357;28;20473;-56
2022/03/23 00:33:47;;;;;;;44.60;12.83;;;7.10;9.60;;;;;;5008275;28;20490;-55
2022/03/23 00:36:15;;;;;;;46.30;12.97;;;7.00;9.60;;;;;;5009647;28;20463;-59
2022/03/23 00:38:42;;;;;;;48.43;12.80;;;7.00;9.90;;;;;;5012015;28;20468;-56
2022/03/23 00:41:09;;;;;;;43.33;12.97;;;7.00;10.00;;;;;;5010318;28;20464;-59
2022/03/23 00:43:36;;;;;;;44.80;13.97;;;7.00;10.00;;;;;;5018818;28;20463;-56
2022/03/23 00:46:04;;;;;;;44.03;13.07;;;6.90;10.10;;;;;;5016572;28;20466;-57
2022/03/23 00:48:31;;;;;;;44.13;12.30;;;7.00;10.20;;;;;;5011472;28;20459;-57
2022/03/23 00:50:58;;;;;;;43.10;11.03;;;6.90;10.40;;;;;;4998358;28;20467;-56
2022/03/23 00:53:25;;;;;;;45.03;12.80;;;6.80;10.30;;;;;;5004173;28;20466;-57
2022/03/23 00:55:52;;;;;;;42.50;11.80;;;6.80;10.40;;;;;;5019463;28;20464;-56
2022/03/23 00:58:18;;;;;;;44.67;11.80;;;6.80;11.20;;;;;;5022174;28;20479;-58
2022/03/23 01:00:45;;;;;;;42.70;12.60;;;6.70;10.80;;;;;;5015030;28;20861;-58
2022/03/23 01:03:14;;;;;;;43.57;13.33;;;6.70;10.80;;;;;;5000648;28;20780;-59
2022/03/23 01:05:40;;;;;;;43.73;12.37;;;6.60;10.90;;;;;;5004933;28;20966;-58
2022/03/23 01:08:07;;;;;;;44.10;11.53;;;6.60;11.20;;;;;;4999494;28;20489;-56
2022/03/23 01:10:34;;;;;;;43.20;11.53;;;6.60;11.40;;;;;;5006249;28;20472;-56
2022/03/23 01:13:01;;;;;;;46.37;13.03;;;6.50;11.30;;;;;;5012348;28;20464;-56
2022/03/23 01:15:29;;;;;;;44.63;13.17;;;6.50;11.30;;;;;;5021548;28;20459;-55
2022/03/23 01:17:56;;;;;;;46.47;13.03;;;6.50;11.40;;;;;;5018470;28;20480;-56
2022/03/23 01:20:24;;;;;;;45.93;13.00;;;6.50;11.30;;;;;;5007755;28;20460;-56
2022/03/23 01:22:51;;;;;;;46.77;13.90;;;6.50;11.40;;;;;;5000901;28;21133;-59
2022/03/23 01:25:19;;;;;;;42.10;12.17;;;6.40;11.40;;;;;;5021391;28;20562;-56
2022/03/23 01:27:47;;;;;;;42.80;13.47;;;6.40;11.60;;;;;;5010918;28;20484;-57
2022/03/23 01:30:15;;;;;;;43.63;12.77;;;6.30;11.60;;;;;;5007344;28;20559;-58
2022/03/23 01:32:43;;;;;;;44.00;12.67;;;6.30;11.70;;;;;;5001924;28;20464;-59
2022/03/23 01:35:11;;;;;;;43.40;12.73;;;6.30;11.70;;;;;;4998715;28;20980;-56
2022/03/23 01:37:40;;;;;;;44.17;13.10;;;6.20;11.80;;;;;;5009566;28;20488;-57
2022/03/23 01:40:09;;;;;;;43.40;12.27;;;6.10;12.10;;;;;;5021042;28;20517;-56
2022/03/23 01:42:36;;;;;;;45.37;13.50;;;6.00;12.00;;;;;;5005327;28;20460;-55
2022/03/23 01:45:04;;;;;;;44.93;13.00;;;6.00;12.20;;;;;;5005352;28;20490;-56
2022/03/23 01:47:31;;;;;;;45.40;12.33;;;6.00;12.20;;;;;;5020910;28;20558;-57
2022/03/23 01:49:58;;;;;;;45.03;13.70;;;5.90;12.50;;;;;;5008228;28;20492;-56
2022/03/23 01:52:26;;;;;;;44.33;12.70;;;5.80;12.60;;;;;;5002210;28;20491;-57
2022/03/23 01:54:54;;;;;;;48.37;13.67;;;5.80;12.80;;;;;;5016704;28;20471;-53
2022/03/23 01:57:22;;;;;;;47.40;14.60;;;5.70;12.80;;;;;;5015711;28;20487;-58
2022/03/23 01:59:50;;;;;;;44.93;12.93;;;5.70;13.10;;;;;;5010662;28;20465;-58
2022/03/23 02:02:17;;;;;;;49.33;14.47;;;5.70;13.10;;;;;;4995189;28;20480;-57
2022/03/23 02:04:44;;;;;;;44.53;12.90;;;5.60;13.70;;;;;;5002217;28;20469;-54
2022/03/23 02:07:11;;;;;;;43.20;13.37;;;5.60;13.30;;;;;;5001095;28;21013;-55
2022/03/23 02:09:38;;;;;;;44.17;12.63;;;5.60;13.30;;;;;;5008389;28;20479;-56
2022/03/23 02:12:08;;;;;;;52.33;14.33;;;5.50;13.50;;;;;;5014112;28;20479;-56
2022/03/23 02:14:35;;;;;;;46.10;15.53;;;5.50;13.60;;;;;;5020562;28;20463;-59
2022/03/23 02:17:02;;;;;;;47.63;13.83;;;5.60;13.40;;;;;;5004512;28;20488;-55
2022/03/23 02:19:29;;;;;;;44.70;12.37;;;5.60;13.60;;;;;;5010122;28;20468;-59
2022/03/23 02:21:57;;;;;;;46.80;14.17;;;5.60;13.20;;;;;;5005285;28;20847;-58
2022/03/23 02:24:26;;;;;;;47.93;13.20;;;5.50;13.20;;;;;;5001849;28;20456;-56
2022/03/23 02:26:54;;;;;;;47.90;14.20;;;5.60;13.30;;;;;;5020086;28;20852;-55
2022/03/23 02:29:24;;;;;;;46.80;13.87;;;5.50;13.60;;;;;;5004661;28;20499;-58
2022/03/23 02:31:51;;;;;;;47.70;15.50;;;5.50;13.60;;;;;;5010331;28;20482;-54
2022/03/23 02:34:18;;;;;;;48.27;14.97;;;5.50;13.70;;;;;;5014393;28;20483;-58
2022/03/23 02:36:45;;;;;;;46.60;13.57;;;5.60;14.00;;;;;;5005666;28;20476;-56
2022/03/23 02:39:13;;;;;;;44.80;14.00;;;5.50;14.20;;;;;;5012882;28;20458;-56
2022/03/23 02:41:40;;;;;;;50.80;16.40;;;5.50;14.20;;;;;;5016425;28;20537;-57
2022/03/23 02:44:07;;;;;;;50.70;13.03;;;5.40;14.00;;;;;;4994096;28;20551;-56
2022/03/23 02:46:35;;;;;;;45.90;14.90;;;5.40;14.20;;;;;;4999396;28;21118;-56
2022/03/23 02:49:03;;;;;;;45.67;13.63;;;5.40;14.30;;;;;;5019779;28;20536;-57
2022/03/23 02:51:30;;;;;;;49.33;15.53;;;5.30;15.00;;;;;;5008531;28;20460;-56
2022/03/23 03:02:31;;;;;;;51.67;19.33;;;5.20;15.60;;;;;;5005742;28;20548;-56
2022/03/23 03:05:00;;;;;;;53.20;18.50;;;5.20;15.80;;;;;;5005604;28;20558;-56
2022/03/23 03:07:27;;;;;;;49.37;17.87;;;5.10;16.10;;;;;;5006764;28;20480;-57
2022/03/23 03:09:53;;;;;;;55.50;17.87;;;5.10;16.60;;;;;;5006707;28;20489;-58
2022/03/23 03:12:22;;;;;;;51.10;19.13;;;5.10;16.60;;;;;;5029563;28;21130;-57
2022/03/23 03:14:49;;;;;;;51.37;18.93;;;5.10;16.90;;;;;;5016123;28;20690;-57
2022/03/23 03:17:17;;;;;;;49.50;17.80;;;5.10;18.00;;;;;;5019429;28;21061;-56
2022/03/23 03:19:43;;;;;;;48.00;18.50;;;5.10;18.00;;;;;;5018347;28;20460;-58
2022/03/23 03:22:10;;;;;;;52.20;18.97;;;5.10;18.00;;;;;;5012253;28;20474;-56
2022/03/23 03:24:37;;;;;;;49.37;17.57;;;5.00;18.20;;;;;;5007084;28;20471;-58
2022/03/23 03:27:04;;;;;;;54.10;18.50;;;5.00;17.90;;;;;;5018113;28;20510;-56
2022/03/23 03:29:32;;;;;;;49.40;18.00;;;5.00;18.20;;;;;;5014199;28;20483;-57
2022/03/23 03:31:59;;;;;;;52.87;17.63;;;4.90;18.30;;;;;;5028204;28;20479;-56
2022/03/23 03:34:26;;;;;;;52.17;18.87;;;4.80;18.50;;;;;;5018386;28;20468;-58
2022/03/23 03:36:52;;;;;;;51.30;18.20;;;4.70;18.60;;;;;;5011604;28;20479;-56
2022/03/23 03:39:19;;;;;;;52.20;19.77;;;4.60;18.90;;;;;;5014452;28;20468;-60
2022/03/23 03:41:46;;;;;;;48.47;18.77;;;4.50;19.30;;;;;;5024960;28;20541;-56
2022/03/23 03:44:13;;;;;;;50.70;17.53;;;4.50;19.50;;;;;;5022519;28;21077;-57
2022/03/23 03:46:41;;;;;;;48.37;17.77;;;4.50;19.70;;;;;;5023599;28;20498;-57
2022/03/23 03:49:08;;;;;;;54.30;18.50;;;4.50;19.40;;;;;;5012663;28;20468;-56
2022/03/23 03:51:35;;;;;;;48.97;18.27;;;4.50;19.20;;;;;;5013196;28;20565;-58
2022/03/23 03:54:02;;;;;;;49.83;18.67;;;4.50;19.20;;;;;;5018699;28;20485;-56
2022/03/23 03:56:29;;;;;;;49.63;17.43;;;4.50;19.20;;;;;;5014091;28;20501;-57
2022/03/23 03:58:56;;;;;;;51.70;17.70;;;4.50;19.20;;;;;;5001415;28;20465;-58
2022/03/23 04:01:22;;;;;;;49.83;16.40;;;4.50;19.30;;;;;;5013454;28;20474;-57
2022/03/23 04:03:51;;;;;;;50.20;17.40;;;4.40;19.30;;;;;;5021172;28;20464;-58
2022/03/23 04:06:17;;;;;;;52.10;16.80;;;4.40;19.30;;;;;;5016902;28;20464;-57
2022/03/23 04:08:44;;;;;;;49.53;15.83;;;4.40;19.20;;;;;;5015091;28;20472;-58
2022/03/23 04:11:11;;;;;;;49.13;16.77;;;4.40;19.50;;;;;;5025319;28;20481;-58
2022/03/23 04:13:38;;;;;;;49.40;17.07;;;4.40;19.40;;;;;;5030946;28;20459;-57
2022/03/23 04:16:05;;;;;;;47.70;15.20;;;4.40;19.90;;;;;;5028609;28;20459;-58
2022/03/23 04:18:32;;;;;;;49.93;16.90;;;4.40;19.90;;;;;;5031273;28;20844;-58
2022/03/23 04:21:00;;;;;;;47.53;15.90;;;4.40;19.60;;;;;;5005144;28;20461;-57
2022/03/23 04:23:27;;;;;;;51.33;16.47;;;4.40;19.70;;;;;;5005278;28;20474;-58
2022/03/23 04:25:53;;;;;;;51.77;17.67;;;4.40;19.60;;;;;;5016204;28;20547;-58
2022/03/23 04:28:21;;;;;;;51.40;16.37;;;4.40;19.30;;;;;;5013389;28;21020;-57
2022/03/23 04:30:48;;;;;;;56.83;16.60;;;4.40;19.30;;;;;;4991950;28;20464;-58
2022/03/23 04:33:15;;;;;;;49.00;16.03;;;4.40;19.30;;;;;;5004585;28;20511;-57
2022/03/23 04:35:42;;;;;;;51.20;16.17;;;4.40;19.10;;;;;;5010902;28;20470;-57
2022/03/23 04:38:10;;;;;;;48.00;15.90;;;4.40;19.10;;;;;;5006519;28;20471;-55
2022/03/23 04:40:37;;;;;;;49.77;16.67;;;4.30;19.00;;;;;;5013801;28;20460;-55
2022/03/23 04:43:04;;;;;;;50.13;16.87;;;4.30;19.20;;;;;;5015499;28;20447;-58
2022/03/23 04:45:31;;;;;;;49.93;17.23;;;4.20;19.20;;;;;;5019039;28;20451;-57
2022/03/23 04:47:57;;;;;;;49.90;17.10;;;4.20;19.70;;;;;;5019691;28;20486;-56
2022/03/23 04:50:24;;;;;;;48.90;16.03;;;4.20;19.70;;;;;;5006117;28;20494;-58
2022/03/23 04:52:52;;;;;;;53.90;18.70;;;4.20;19.90;;;;;;5003033;28;20459;-58
2022/03/23 04:55:21;;;;;;;49.50;16.40;;;4.20;20.00;;;;;;5019029;28;20559;-57
2022/03/23 04:57:48;;;;;;;53.47;18.77;;;4.20;20.90;;;;;;5005917;28;20561;-57
2022/03/23 05:00:17;;;;;;;53.17;18.67;;;4.20;21.30;;;;;;5004224;28;20492;-57
2022/03/23 05:02:45;;;;;;;49.93;17.10;;;4.20;20.60;;;;;;4998354;28;20464;-58
2022/03/23 05:05:13;;;;;;;52.07;18.07;;;4.20;20.40;;;;;;5004890;28;20511;-56
2022/03/23 05:07:40;;;;;;;54.87;19.47;;;4.10;20.60;;;;;;5003692;28;20488;-55
2022/03/23 05:10:09;;;;;;;50.60;19.83;;;4.10;21.20;;;;;;5006741;28;20476;-60
2022/03/23 05:12:38;;;;;;;51.87;18.53;;;4.00;21.20;;;;;;5005636;28;20460;-60
2022/03/23 05:15:06;;;;;;;51.47;18.83;;;3.90;21.30;;;;;;5006627;28;21076;-60
2022/03/23 05:17:32;;;;;;;51.83;17.10;;;3.90;21.90;;;;;;5000766;28;20480;-60
2022/03/23 05:19:59;;;;;;;55.03;19.40;;;3.90;23.30;;;;;;5016412;28;20451;-60
2022/03/23 05:22:26;;;;;;;50.13;18.90;;;3.80;23.30;;;;;;5010788;28;20466;-59
2022/03/23 05:24:53;;;;;;;50.90;17.63;;;3.70;23.60;;;;;;5005886;28;20464;-60
2022/03/23 05:27:20;;;;;;;53.70;19.17;;;3.70;23.40;;;;;;5000130;28;20491;-60
2022/03/23 05:29:48;;;;;;;52.80;19.00;;;3.70;23.60;;;;;;5010644;28;20463;-60
2022/03/23 05:32:17;;;;;;;49.67;16.40;;;3.70;23.50;;;;;;5002610;28;21006;-59
2022/03/23 05:34:45;;;;;;;48.70;17.50;;;3.80;23.90;;;;;;4992252;28;20464;-60
2022/03/23 05:37:12;;;;;;;50.40;17.33;;;3.90;23.80;;;;;;5004980;28;20526;-60
2022/03/23 05:39:39;;;;;;;58.00;18.57;;;3.90;23.60;;;;;;5001443;28;20490;-61
2022/03/23 05:42:07;;;;;;;50.33;17.03;;;4.10;23.50;;;;;;4995987;28;20457;-59
2022/03/23 05:44:34;;;;;;;51.37;16.63;;;4.30;23.20;;;;;;5003140;28;20506;-60
2022/03/23 05:47:03;;;;;;;49.53;16.80;;;4.40;22.80;;;;;;5000103;28;20514;-60
2022/03/23 05:49:30;;;;;;;51.87;16.77;;;4.60;22.30;;;;;;5000766;28;20461;-61
2022/03/23 05:51:57;;;;;;;47.67;16.80;;;4.90;21.40;;;;;;5006708;28;20500;-60
2022/03/23 05:54:24;;;;;;;49.50;17.80;;;5.50;20.20;;;;;;4996631;28;20479;-61
2022/03/23 05:56:51;;;;;;;50.13;16.60;;;6.10;18.90;;;;;;4999813;28;20492;-61
2022/03/23 05:59:18;;;;;;;49.37;15.60;;;6.80;17.60;;;;;;5004122;28;20475;-62
2022/03/23 06:01:45;;;;;;;50.90;18.13;;;7.60;16.40;;;;;;5001561;28;20479;-61
2022/03/23 06:04:13;;;;;;;44.67;15.43;;;8.20;15.10;;;;;;5004324;28;20475;-61
2022/03/23 06:06:40;;;;;;;46.23;15.93;;;8.80;14.20;;;;;;5003069;28;20492;-61
2022/03/23 06:09:07;;;;;;;49.50;16.20;;;9.20;13.40;;;;;;5000894;28;20475;-61
2022/03/23 06:11:34;;;;;;;45.37;15.27;;;9.50;13.00;;;;;;5004208;28;20484;-63
2022/03/23 06:14:01;;;;;;;48.37;16.67;;;9.80;12.40;;;;;;5004835;28;20479;-60
2022/03/23 06:16:27;;;;;;;47.70;15.80;;;10.00;12.30;;;;;;5001224;28;20476;-63
2022/03/23 06:18:54;;;;;;;48.80;15.77;;;10.30;12.10;;;;;;4995803;28;20476;-63
2022/03/23 06:21:22;;;;;;;46.03;15.10;;;10.50;11.90;;;;;;5002422;28;20461;-64
2022/03/23 06:23:49;;;;;;;46.00;15.27;;;10.70;11.90;;;;;;5001437;28;20479;-63
2022/03/23 06:26:16;;;;;;;45.43;16.53;;;10.80;12.10;;;;;;5006001;28;20460;-62
2022/03/23 06:28:42;;;;;;;45.40;14.97;;;10.90;12.10;;;;;;4998008;28;20465;-61
2022/03/23 06:31:09;;;;;;;44.47;15.97;;;11.10;11.90;;;;;;5001219;28;20485;-62
2022/03/23 06:33:36;;;;;;;45.97;16.97;;;11.20;11.90;;;;;;5002843;28;20470;-59
2022/03/23 06:36:03;;;;;;;44.23;15.40;;;11.40;11.00;;;;;;5007383;28;20482;-59
2022/03/23 06:38:31;;;;;;;42.97;14.30;;;11.70;10.10;;;;;;5008245;28;20460;-61
2022/03/23 06:40:58;;;;;;;45.87;16.57;;;12.30;9.50;;;;;;5000464;28;20467;-60
2022/03/23 06:43:26;;;;;;;44.63;16.13;;;12.80;8.40;;;;;;4998783;28;20468;-60
2022/03/23 06:45:53;;;;;;;44.30;15.43;;;13.20;7.80;;;;;;5001138;28;20547;-56
2022/03/23 06:48:20;;;;;;;43.43;15.53;;;13.50;7.30;;;;;;5009253;28;20488;-58
2022/03/23 06:50:46;;;;;;;42.83;15.37;;;13.80;6.80;;;;;;5000772;28;20480;-58
2022/03/23 06:53:13;;;;;;;45.80;15.80;;;14.40;6.00;;;;;;5007197;28;21120;-58
2022/03/23 06:55:41;;;;;;;41.93;15.23;;;15.40;5.10;;;;;;4999292;28;20457;-58
2022/03/23 06:58:08;;;;;;;44.33;15.37;;;16.60;3.80;;;;;;5001210;28;20510;-56
2022/03/23 07:00:36;;;;;;;43.27;15.13;;;17.90;2.30;;;;;;4995803;28;20469;-58
2022/03/23 07:03:05;;;;;;;42.87;15.50;;;19.10;1.00;;;;;;4992642;28;20473;-57
2022/03/23 07:05:33;;;;;;;43.77;16.03;;;20.40;1.00;;;;;;5009098;28;20550;-57
2022/03/23 07:10:45;;;;;;;43.67;15.70;;;23.00;1.00;;;;;;5009960;28;20484;-61
2022/03/23 07:13:13;;;;;;;42.00;17.07;;;24.20;1.00;;;;;;5003438;28;20831;-60
2022/03/23 07:15:42;;;;;;;39.80;15.57;;;25.30;1.00;;;;;;5004062;28;20476;-62
2022/03/23 07:18:09;;;;;;;39.90;16.03;;;26.40;1.00;;;;;;5006949;28;20547;-64
2022/03/23 07:20:36;;;;;;;41.07;15.00;;;27.30;1.00;;;;;;4997512;28;20467;-61
2022/03/23 07:23:03;;;;;;;37.97;14.80;;;28.10;1.00;;;;;;5002510;28;20479;-62
2022/03/23 07:25:30;;;;;;;40.10;16.13;;;29.00;1.00;;;;;;5002851;28;20924;-61
2022/03/23 07:27:58;;;;;;;39.60;15.83;;;29.90;1.00;;;;;;4998340;28;20478;-62
2022/03/23 07:30:26;;;;;;;36.07;13.90;;;30.70;1.00;;;;;;5003261;28;20498;-59
2022/03/23 07:32:53;;;;;;;38.50;14.90;;;31.50;1.00;;;;;;4999155;28;21034;-61
2022/03/23 07:35:21;;;;;;;36.70;14.70;;;32.20;1.00;;;;;;4998539;28;20847;-58
2022/03/23 07:37:48;;;;;;;36.10;15.03;;;33.00;1.00;;;;;;5001405;28;20511;-59
2022/03/23 07:40:15;;;;;;;37.30;15.50;;;33.70;1.00;;;;;;5001338;28;20484;-60
2022/03/23 07:42:41;;;;;;;38.53;13.87;;;34.20;1.00;;;;;;5001201;28;20475;-60
2022/03/23 07:45:11;;;;;;;37.60;14.60;;;34.80;1.00;;;;;;4994036;28;21261;-58
2022/03/23 07:47:38;;;;;;;32.63;13.13;;;35.60;1.00;;;;;;5001174;28;20546;-60
2022/03/23 07:50:06;;;;;;;35.10;14.00;;;36.20;1.00;;;;;;5006350;28;20961;-59
2022/03/23 07:52:33;;;;;;;33.00;13.30;;;36.90;1.00;;;;;;4998869;28;20489;-60
2022/03/23 07:55:00;;;;;;;33.37;12.67;;;37.40;1.00;;;;;;5008374;28;21016;-60
2022/03/23 07:57:27;;;;;;;35.00;13.83;;;37.80;1.00;;;;;;4998951;28;20515;-59
2022/03/23 07:59:55;;;;;;;34.60;14.10;;;38.40;1.00;;;;;;5003731;28;20463;-61
2022/03/23 08:02:23;;;;;;;35.33;14.47;;;38.90;1.00;;;;;;5003649;28;20514;-60
2022/03/23 08:04:50;;;;;;;39.60;14.10;;;39.30;1.00;;;;;;5008525;28;20551;-59
2022/03/23 08:07:17;;;;;;;33.37;13.87;;;39.60;1.00;;;;;;5001244;28;20571;-60
2022/03/23 08:09:45;;;;;;;31.67;13.10;;;40.10;1.00;;;;;;5005853;28;20960;-62
2022/03/23 08:12:12;;;;;;;31.30;13.83;;;40.40;1.00;;;;;;5005184;28;20530;-63
2022/03/23 08:14:39;;;;;;;31.50;13.03;;;40.70;1.00;;;;;;4999479;28;20539;-63
2022/03/23 08:17:05;;;;;;;29.57;12.30;;;41.10;1.00;;;;;;4998748;28;20484;-58
2022/03/23 08:19:34;;;;;;;33.07;13.10;;;41.70;1.00;;;;;;5001817;28;20483;-60
2022/03/23 08:22:00;;;;;;;30.17;12.87;;;42.10;1.00;;;;;;5004543;28;20540;-61
2022/03/23 08:24:27;;;;;;;29.77;13.50;;;42.40;1.00;;;;;;5007616;28;20463;-58
2022/03/23 08:26:54;;;;;;;31.57;12.20;;;43.00;1.00;;;;;;5005356;28;21023;-61
2022/03/23 08:29:21;;;;;;;29.00;13.30;;;43.50;1.00;;;;;;5010832;28;20510;-64
2022/03/23 08:31:48;;;;;;;30.73;12.57;;;43.70;1.00;;;;;;5005722;28;20482;-60
2022/03/23 08:34:15;;;;;;;31.20;13.30;;;43.80;1.00;;;;;;5010878;28;20459;-62
2022/03/23 08:36:43;;;;;;;31.10;12.20;;;43.90;1.00;;;;;;5003182;28;20495;-65
2022/03/23 08:39:09;;;;;;;29.90;13.30;;;44.00;1.00;;;;;;5003875;28;20540;-63
2022/03/23 08:41:36;;;;;;;31.23;13.93;;;44.10;1.00;;;;;;5005132;28;20470;-62
2022/03/23 08:44:04;;;;;;;29.90;13.20;;;44.30;1.00;;;;;;5003079;28;20465;-61
2022/03/23 08:46:30;;;;;;;29.50;13.10;;;44.60;1.00;;;;;;4994817;28;20492;-61
2022/03/23 08:48:58;;;;;;;28.07;12.20;;;44.70;1.00;;;;;;5001033;28;20463;-61
2022/03/23 08:51:24;;;;;;;28.40;13.20;;;44.90;1.00;;;;;;5004926;28;20480;-63
2022/03/23 08:53:53;;;;;;;29.07;12.57;;;45.10;1.00;;;;;;5007988;28;20466;-62
2022/03/23 08:56:19;;;;;;;30.47;11.90;;;45.20;1.00;;;;;;5005215;28;20467;-64
2022/03/23 08:58:49;;;;;;;31.60;12.63;;;45.40;1.00;;;;;;5006511;28;20474;-61
2022/03/23 09:01:16;;;;;;;28.53;13.00;;;45.60;1.00;;;;;;5005747;28;20536;-61
2022/03/23 09:03:43;;;;;;;29.10;13.43;;;45.40;1.00;;;;;;5006395;28;20465;-59
2022/03/23 09:06:10;;;;;;;27.73;11.80;;;44.50;1.00;;;;;;5005427;28;20461;-62
2022/03/23 09:08:37;;;;;;;28.63;12.67;;;44.50;1.00;;;;;;5006430;28;20837;-60
2022/03/23 09:11:05;;;;;;;29.47;11.83;;;44.90;1.00;;;;;;5000043;28;20551;-61
2022/03/23 09:13:32;;;;;;;29.83;12.53;;;45.50;1.00;;;;;;5005212;28;20893;-60
2022/03/23 09:15:59;;;;;;;27.87;11.77;;;45.60;1.00;;;;;;5004901;28;20470;-57
2022/03/23 09:18:26;;;;;;;27.87;11.50;;;45.90;1.00;;;;;;5002477;28;20484;-58
2022/03/23 09:20:53;;;;;;;39.83;12.63;;;46.10;1.00;;;;;;5003747;28;20495;-60
2022/03/23 09:23:20;;;;;;;30.67;11.70;;;46.40;1.00;;;;;;5003450;28;21017;-60
2022/03/23 09:25:48;;;;;;;25.30;10.40;;;46.70;1.00;;;;;;4999636;28;20464;-60
2022/03/23 09:28:16;;;;;;;26.07;10.80;;;46.80;1.00;;;;;;5006767;28;20604;-58
2022/03/23 09:30:43;;;;;;;25.67;10.67;;;46.90;1.00;;;;;;5013758;28;20464;-58
2022/03/23 09:33:09;;;;;;;26.77;11.27;;;47.20;1.00;;;;;;4998090;28;20491;-60
2022/03/23 09:35:36;;;;;;;27.57;11.10;;;47.50;1.00;;;;;;5001794;28;20467;-60
2022/03/23 09:38:04;;;;;;;28.40;11.13;;;47.50;1.00;;;;;;5012828;28;20486;-57
2022/03/23 09:40:32;;;;;;;25.10;10.50;;;47.70;1.00;;;;;;5012097;28;20460;-59
2022/03/23 09:43:00;;;;;;;26.17;10.10;;;47.90;1.00;;;;;;5004260;28;21027;-57
2022/03/23 09:45:46;;;;;;;24.67;10.23;;;48.00;1.00;;;;;;5008355;28;20451;-57
2022/03/23 09:48:14;;;;;;;26.07;10.67;;;48.20;1.00;;;;;;5007266;28;20545;-57
2022/03/23 09:50:44;;;;;;;24.80;9.70;;;48.40;1.00;;;;;;5007584;28;20821;-59
2022/03/23 09:53:11;;;;;;;27.70;10.20;;;48.60;1.00;;;;;;5012451;28;20475;-59
2022/03/23 09:55:38;;;;;;;25.30;10.67;;;48.80;1.00;;;;;;5004115;28;20460;-60
2022/03/23 09:58:07;;;;;;;25.93;10.40;;;49.10;1.00;;;;;;5002756;28;20483;-61
2022/03/23 10:00:37;;;;;;;25.10;9.90;;;49.20;1.00;;;;;;5003251;28;20523;-62
2022/03/23 10:03:41;;;;;;;28.80;10.40;;;49.30;1.00;;;;;;5006114;28;20460;-60
2022/03/23 10:06:53;;;;;;;26.90;10.50;;;49.30;1.00;;;;;;4994760;28;20461;-60
2022/03/23 10:10:13;;;;;;;23.20;8.40;;;48.90;1.00;;;;;;5011423;28;20483;-61
2022/03/23 10:13:17;;;;;;;24.77;9.13;;;49.00;1.00;;;;;;5002551;28;20543;-60
2022/03/23 10:16:23;;;;;;;28.70;8.80;;;48.30;1.00;;;;;;4994309;28;20463;-59
2022/03/23 10:18:56;;;;;;;24.37;8.93;;;48.60;1.00;;;;;;4973087;28;20455;-58
2022/03/23 10:21:24;;;;;;;25.80;9.10;;;48.50;1.00;;;;;;5006789;28;20463;-60
2022/03/23 10:24:10;;;;;;;26.93;8.40;;;48.70;1.00;;;;;;5009184;28;20456;-60
2022/03/23 10:26:40;;;;;;;25.17;8.30;;;48.80;1.00;;;;;;5004150;28;20590;-61
2022/03/23 10:29:21;;;;;;;25.17;8.23;;;49.20;1.00;;;;;;5003847;28;20966;-62
2022/03/23 10:31:58;;;;;;;24.00;8.80;;;49.50;1.00;;;;;;5003945;28;20564;-61
2022/03/23 10:34:41;;;;;;;24.40;9.27;;;49.60;1.00;;;;;;5015938;28;20451;-61
2022/03/23 10:37:08;;;;;;;24.93;9.50;;;49.70;1.00;;;;;;5011635;28;20490;-65
2022/03/23 10:39:35;;;;;;;25.57;9.60;;;49.50;1.00;;;;;;5004804;28;21095;-61
2022/03/23 10:42:08;;;;;;;25.37;8.70;;;49.30;1.00;;;;;;4996982;28;20457;-59
2022/03/23 10:44:35;;;;;;;24.57;9.60;;;49.10;1.00;;;;;;5003572;28;20463;-58
2022/03/23 10:47:02;;;;;;;25.83;9.47;;;49.00;1.00;;;;;;5001893;28;20512;-59
2022/03/23 10:49:36;;;;;;;27.40;9.40;;;48.90;1.00;;;;;;5001956;28;20464;-60
2022/03/23 10:52:13;;;;;;;25.50;8.30;;;48.60;1.00;;;;;;4997856;28;20928;-59
2022/03/23 10:54:40;;;;;;;25.00;8.87;;;48.20;1.00;;;;;;4995826;28;20468;-60
2022/03/23 10:57:08;;;;;;;24.67;8.97;;;47.60;1.00;;;;;;4997395;28;20484;-61
2022/03/23 10:59:45;;;;;;;28.40;10.00;;;46.90;1.00;;;;;;5004231;28;20468;-61
2022/03/23 11:02:13;;;;;;;25.27;9.27;;;46.20;1.00;;;;;;4990101;28;20503;-61
2022/03/23 11:04:49;;;;;;;25.57;9.33;;;45.80;1.00;;;;;;4996608;28;20544;-58
2022/03/23 11:07:27;;;;;;;27.37;10.20;;;45.00;1.00;;;;;;4998652;28;20491;-62
2022/03/23 11:18:11;;;;;;;28.47;9.90;;;44.30;1.00;;;;;;5001823;28;20551;-58
2022/03/23 11:20:46;;;;;;;26.90;10.30;;;44.20;1.00;;;;;;5002263;28;21039;-56
2022/03/23 11:23:19;;;;;;;28.60;10.80;;;43.80;1.00;;;;;;4992689;28;20468;-57
2022/03/23 11:25:46;;;;;;;28.20;10.50;;;43.50;1.00;;;;;;5004821;28;20451;-59
2022/03/23 11:28:15;;;;;;;28.77;10.97;;;42.90;1.00;;;;;;5015591;28;20474;-58
2022/03/23 11:30:42;;;;;;;29.00;11.43;;;42.60;1.00;;;;;;5001509;28;20463;-58
2022/03/23 11:33:11;;;;;;;29.93;11.83;;;42.20;1.00;;;;;;4996549;28;20480;-57
2022/03/23 11:35:48;;;;;;;30.60;11.57;;;41.60;1.00;;;;;;5011687;28;20466;-57
2022/03/23 11:38:18;;;;;;;28.33;10.60;;;40.90;1.00;;;;;;5003561;28;20482;-58
2022/03/23 11:40:47;;;;;;;30.90;11.80;;;39.90;1.00;;;;;;5010089;28;20467;-58
2022/03/23 11:43:15;;;;;;;29.40;12.17;;;38.70;1.00;;;;;;5008157;28;20466;-59
2022/03/23 11:45:45;;;;;;;30.80;12.77;;;37.50;1.00;;;;;;5003030;28;20468;-57
2022/03/23 11:48:21;;;;;;;32.80;12.80;;;36.30;1.00;;;;;;5005830;28;20497;-58
2022/03/23 11:51:29;;;;;;;31.60;12.00;;;35.30;1.00;;;;;;5003046;28;20459;-58
2022/03/23 11:54:07;;;;;;;33.70;12.97;;;34.30;1.00;;;;;;4920436;28;20573;-60
2022/03/23 11:56:42;;;;;;;31.40;12.00;;;33.30;1.00;;;;;;5005938;28;20494;-57
2022/03/23 11:59:20;;;;;;;33.43;13.03;;;32.40;1.00;;;;;;5003087;28;20523;-58
2022/03/23 12:01:48;;;;;;;35.23;13.40;;;31.70;1.00;;;;;;5003167;28;20478;-58
2022/03/23 12:04:19;;;;;;;34.57;13.00;;;30.90;1.00;;;;;;5008189;28;20466;-59
2022/03/23 12:06:47;;;;;;;33.23;11.47;;;30.20;1.00;;;;;;5010308;28;20475;-58
2022/03/23 12:09:36;;;;;;;33.40;13.10;;;29.50;1.00;;;;;;5014864;28;20969;-58
2022/03/23 12:12:04;;;;;;;34.20;13.10;;;29.00;1.00;;;;;;5008645;28;20459;-57
2022/03/23 12:14:35;;;;;;;33.97;12.90;;;28.40;1.00;;;;;;5010457;28;20900;-58
2022/03/23 12:17:16;;;;;;;35.70;11.90;;;27.90;1.00;;;;;;5008117;28;20488;-54
2022/03/23 12:20:12;;;;;;;34.67;12.40;;;27.50;1.00;;;;;;5002259;28;21014;-57
2022/03/23 12:23:03;;;;;;;35.70;14.87;;;27.10;1.00;;;;;;5006349;28;20494;-56
2022/03/23 12:25:37;;;;;;;35.60;13.37;;;26.60;1.00;;;;;;5000591;28;20527;-57
2022/03/23 12:28:18;;;;;;;36.13;13.20;;;26.30;1.00;;;;;;5005120;28;20503;-56
2022/03/23 12:31:07;;;;;;;41.60;15.60;;;25.90;1.00;;;;;;5004704;28;20478;-56
2022/03/23 12:34:09;;;;;;;36.47;13.37;;;25.40;1.00;;;;;;4996255;28;20516;-58
2022/03/23 12:39:28;;;;;;;37.40;13.10;;;24.40;1.00;;;;;;5004147;28;20446;-56
2022/03/23 12:41:57;;;;;;;36.93;13.10;;;24.00;1.00;;;;;;4996884;28;20496;-59
2022/03/23 12:44:32;;;;;;;37.80;13.60;;;23.70;1.00;;;;;;4996363;28;20472;-59
2022/03/23 12:47:06;;;;;;;36.67;12.60;;;23.40;1.00;;;;;;5007566;28;20534;-54
2022/03/23 12:58:08;;;;;;;38.47;13.60;;;22.70;1.00;;;;;;5005143;28;20470;-58
2022/03/23 13:00:40;;;;;;;38.17;14.00;;;22.50;1.00;;;;;;5000851;28;20484;-58
2022/03/23 13:04:00;;;;;;;39.00;13.83;;;22.30;1.00;;;;;;4996481;28;20461;-59
2022/03/23 13:06:38;;;;;;;37.60;14.20;;;22.20;1.00;;;;;;4994858;28;20598;-58
2022/03/23 13:09:10;;;;;;;37.50;13.90;;;22.10;1.00;;;;;;5001722;28;20464;-59
2022/03/23 13:11:39;;;;;;;41.97;13.67;;;22.00;1.00;;;;;;5008789;28;20460;-58
2022/03/23 13:14:07;;;;;;;39.00;15.43;;;21.90;1.00;;;;;;5002099;28;20534;-59
2022/03/23 13:16:38;;;;;;;38.53;14.17;;;21.70;1.00;;;;;;5001611;28;20485;-63
2022/03/23 13:19:07;;;;;;;39.37;13.43;;;21.60;1.00;;;;;;4999711;28;20545;-59
2022/03/23 13:21:38;;;;;;;39.30;12.90;;;21.50;1.00;;;;;;5002493;28;21061;-60